Time;durP1;ratioP1;P1;durP2;ratioP2;P2;SDS_P1;SDS_P2;PMS_P1;PMS_P2;Temp;Humidity;BMP_temperature;BMP_pressure;BME280_temperature;BME280_humidity;BME280_pressure;Samples;Min_cycle;Max_cycle;Signal;HPM_P1;HPM_P2
2023/08/15 00:00:13;;;;;;;;;;;22.90;99.90;;;;;;5071818;28;19908;-71
2023/08/15 00:02:39;;;;;;;;;;;22.90;99.90;;;;;;5071403;28;20346;-73
2023/08/15 00:05:04;;;;;;;;;;;22.90;99.90;;;;;;5071754;28;19908;-72
2023/08/15 00:07:30;;;;;;;;;;;22.90;99.90;;;;;;5071671;28;19905;-72
2023/08/15 00:09:55;;;;;;;;;;;22.90;99.90;;;;;;5072283;28;20227;-72
2023/08/15 00:12:21;;;;;;;;;;;22.90;99.90;;;;;;5071775;28;19926;-73
2023/08/15 00:14:47;;;;;;;;;;;22.90;99.90;;;;;;5071449;28;19909;-73
2023/08/15 00:17:12;;;;;;;;;;;22.90;99.90;;;;;;5069997;28;19912;-73
2023/08/15 00:19:37;;;;;;;;;;;22.90;99.90;;;;;;5070226;28;19904;-74
2023/08/15 00:22:03;;;;;;;;;;;22.90;99.90;;;;;;5071753;28;19908;-72
2023/08/15 00:24:29;;;;;;;;;;;22.90;99.90;;;;;;5070218;28;19912;-74
2023/08/15 00:26:54;;;;;;;;;;;22.90;99.90;;;;;;5071450;28;19920;-73
2023/08/15 00:29:20;;;;;;;;;;;22.80;99.90;;;;;;5071491;28;20334;-74
2023/08/15 00:31:45;;;;;;;;;;;22.80;99.90;;;;;;5071139;28;19908;-73
2023/08/15 00:34:11;;;;;;;;;;;22.80;99.90;;;;;;5071381;28;20015;-72
2023/08/15 00:36:37;;;;;;;;;;;22.80;99.90;;;;;;5071580;28;19952;-73
2023/08/15 00:39:02;;;;;;;;;;;22.80;99.90;;;;;;5071181;28;20326;-73
2023/08/15 00:41:29;;;;;;;;;;;22.70;99.90;;;;;;5071285;28;20345;-72
2023/08/15 00:43:56;;;;;;;;;;;22.70;99.90;;;;;;5071087;28;19950;-73
2023/08/15 00:46:22;;;;;;;;;;;22.70;99.90;;;;;;5071627;28;19927;-72
2023/08/15 00:48:48;;;;;;;;;;;22.70;99.90;;;;;;5070822;28;19909;-73
2023/08/15 00:51:14;;;;;;;;;;;22.60;99.90;;;;;;5070829;28;19969;-74
2023/08/15 00:53:40;;;;;;;;;;;22.60;99.90;;;;;;5070995;28;19924;-73
2023/08/15 00:56:06;;;;;;;;;;;22.60;99.90;;;;;;5071008;28;19923;-73
2023/08/15 00:58:32;;;;;;;;;;;22.60;99.90;;;;;;5071023;28;20319;-73
2023/08/15 01:00:57;;;;;;;;;;;22.50;99.90;;;;;;5071294;28;19904;-72
2023/08/15 01:03:23;;;;;;;;;;;22.50;99.90;;;;;;5069886;28;19908;-73
2023/08/15 01:05:50;;;;;;;;;;;22.50;99.90;;;;;;5070827;28;19912;-72
2023/08/15 01:08:16;;;;;;;;;;;22.50;99.90;;;;;;5070931;28;20370;-72
2023/08/15 01:10:42;;;;;;;;;;;22.50;99.90;;;;;;5070701;28;19957;-73
2023/08/15 01:13:22;;;;;;;;;;;22.50;99.90;;;;;;5071668;28;19923;-73
2023/08/15 01:15:50;;;;;;;;;;;22.50;99.90;;;;;;5070627;28;20143;-73
2023/08/15 01:18:28;;;;;;;;;;;22.50;99.90;;;;;;5070442;28;19916;-73
2023/08/15 01:20:55;;;;;;;;;;;22.40;99.90;;;;;;5070695;28;19924;-73
2023/08/15 01:23:24;;;;;;;;;;;22.40;99.90;;;;;;5070624;28;19959;-72
2023/08/15 01:25:53;;;;;;;;;;;22.40;99.90;;;;;;5070625;28;19912;-72
2023/08/15 01:28:18;;;;;;;;;;;22.40;99.90;;;;;;5071029;28;19905;-72
2023/08/15 01:30:48;;;;;;;;;;;22.40;99.90;;;;;;5070590;28;19912;-74
2023/08/15 01:33:28;;;;;;;;;;;22.40;99.90;;;;;;5070832;28;19964;-72
2023/08/15 01:35:58;;;;;;;;;;;22.40;99.90;;;;;;5079709;28;19939;-73
2023/08/15 01:38:32;;;;;;;;;;;22.30;99.90;;;;;;5090498;28;20317;-71
2023/08/15 01:40:59;;;;;;;;;;;22.30;99.90;;;;;;5090791;28;19952;-72
2023/08/15 01:43:26;;;;;;;;;;;22.30;99.90;;;;;;5090722;28;19904;-71
2023/08/15 01:45:52;;;;;;;;;;;22.20;99.90;;;;;;5090966;28;19903;-73
2023/08/15 01:48:17;;;;;;;;;;;22.20;99.90;;;;;;5090398;28;19919;-73
2023/08/15 01:50:43;;;;;;;;;;;22.20;99.90;;;;;;5089499;28;19908;-71
2023/08/15 01:53:08;;;;;;;;;;;22.20;99.90;;;;;;5090735;28;19995;-71
2023/08/15 01:55:34;;;;;;;;;;;22.20;99.90;;;;;;5090554;28;19939;-73
2023/08/15 01:58:00;;;;;;;;;;;22.10;99.90;;;;;;5089844;28;19912;-72
2023/08/15 02:00:25;;;;;;;;;;;22.10;99.90;;;;;;5090678;28;19970;-72
2023/08/15 02:02:51;;;;;;;;;;;22.10;99.90;;;;;;5092578;28;19918;-72
2023/08/15 02:05:17;;;;;;;;;;;22.10;99.90;;;;;;5094611;28;20265;-73
2023/08/15 02:07:42;;;;;;;;;;;22.10;99.90;;;;;;5093498;28;20330;-72
2023/08/15 02:10:08;;;;;;;;;;;22.10;99.90;;;;;;5093796;28;20298;-73
2023/08/15 02:12:33;;;;;;;;;;;22.10;99.90;;;;;;5094598;28;19909;-73
2023/08/15 02:14:59;;;;;;;;;;;22.00;99.90;;;;;;5094581;28;19959;-72
2023/08/15 02:17:24;;;;;;;;;;;22.00;99.90;;;;;;5094127;28;20273;-73
2023/08/15 02:19:50;;;;;;;;;;;22.00;99.90;;;;;;5094085;28;20318;-72
2023/08/15 02:22:16;;;;;;;;;;;22.00;99.90;;;;;;5093163;28;20118;-73
2023/08/15 02:24:41;;;;;;;;;;;22.00;99.90;;;;;;5092938;28;20396;-72
2023/08/15 02:27:07;;;;;;;;;;;22.00;99.90;;;;;;5093101;28;20320;-71
2023/08/15 02:29:33;;;;;;;;;;;22.00;99.90;;;;;;5094214;28;19918;-72
2023/08/15 02:31:59;;;;;;;;;;;22.00;99.90;;;;;;5094136;28;19912;-72
2023/08/15 02:34:24;;;;;;;;;;;22.00;99.90;;;;;;5093812;28;19942;-72
2023/08/15 02:36:50;;;;;;;;;;;22.00;99.90;;;;;;5094123;28;19908;-72
2023/08/15 02:39:16;;;;;;;;;;;22.00;99.90;;;;;;5093991;28;19985;-71
2023/08/15 02:41:43;;;;;;;;;;;22.00;99.90;;;;;;5093687;28;20352;-72
2023/08/15 02:44:08;;;;;;;;;;;22.00;99.90;;;;;;5092664;28;19947;-72
2023/08/15 02:46:34;;;;;;;;;;;22.00;99.90;;;;;;5092803;28;19950;-71
2023/08/15 02:48:59;;;;;;;;;;;21.90;99.90;;;;;;5092912;28;20100;-72
2023/08/15 02:51:25;;;;;;;;;;;21.90;99.90;;;;;;5092437;28;19965;-71
2023/08/15 02:53:51;;;;;;;;;;;21.90;99.90;;;;;;5093392;28;19908;-72
2023/08/15 02:56:17;;;;;;;;;;;21.90;99.90;;;;;;5093308;28;20389;-73
2023/08/15 02:58:43;;;;;;;;;;;21.90;99.90;;;;;;5093450;28;19969;-74
2023/08/15 03:01:08;;;;;;;;;;;21.80;99.90;;;;;;5093825;28;20215;-74
2023/08/15 03:03:34;;;;;;;;;;;21.80;99.90;;;;;;5093354;28;20003;-73
2023/08/15 03:06:00;;;;;;;;;;;21.70;99.90;;;;;;5093196;28;19922;-73
2023/08/15 03:08:26;;;;;;;;;;;21.70;99.90;;;;;;5093104;28;19912;-72
2023/08/15 03:10:52;;;;;;;;;;;21.80;99.90;;;;;;5093173;28;19961;-72
2023/08/15 03:13:18;;;;;;;;;;;21.70;99.90;;;;;;5091703;28;20237;-72
2023/08/15 03:15:50;;;;;;;;;;;21.70;99.90;;;;;;5092757;28;19912;-72
2023/08/15 03:18:16;;;;;;;;;;;21.70;99.90;;;;;;5093029;28;19920;-71
2023/08/15 03:20:41;;;;;;;;;;;21.70;99.90;;;;;;5091946;28;20011;-72
2023/08/15 03:23:07;;;;;;;;;;;21.70;99.90;;;;;;5092875;28;19984;-72
2023/08/15 03:25:32;;;;;;;;;;;21.70;99.90;;;;;;5092845;28;20357;-72
2023/08/15 03:27:58;;;;;;;;;;;21.60;99.90;;;;;;5093461;28;19915;-71
2023/08/15 03:30:23;;;;;;;;;;;21.60;99.90;;;;;;5092894;28;19923;-72
2023/08/15 03:32:49;;;;;;;;;;;21.60;99.90;;;;;;5092666;28;20399;-72
2023/08/15 03:35:14;;;;;;;;;;;21.50;99.90;;;;;;5092619;28;19919;-73
2023/08/15 03:37:40;;;;;;;;;;;21.50;99.90;;;;;;5092484;28;19908;-72
2023/08/15 03:40:06;;;;;;;;;;;21.50;99.90;;;;;;5091923;28;19915;-72
2023/08/15 03:42:31;;;;;;;;;;;21.50;99.90;;;;;;5091783;28;19908;-72
2023/08/15 03:44:57;;;;;;;;;;;21.50;99.90;;;;;;5092675;28;20007;-72
2023/08/15 03:47:23;;;;;;;;;;;21.50;99.90;;;;;;5092497;28;20027;-72
2023/08/15 03:49:48;;;;;;;;;;;21.40;99.90;;;;;;5092148;28;19908;-72
2023/08/15 03:52:14;;;;;;;;;;;21.40;99.90;;;;;;5091784;28;19914;-73
2023/08/15 03:54:39;;;;;;;;;;;21.40;99.90;;;;;;5092343;28;19969;-73
2023/08/15 03:57:05;;;;;;;;;;;21.40;99.90;;;;;;5092368;28;20314;-72
2023/08/15 03:59:31;;;;;;;;;;;21.40;99.90;;;;;;5092492;28;20381;-73
2023/08/15 04:01:56;;;;;;;;;;;21.30;99.90;;;;;;5091148;28;19912;-72
2023/08/15 04:04:22;;;;;;;;;;;21.30;99.90;;;;;;5091519;28;19973;-72
2023/08/15 04:06:50;;;;;;;;;;;21.30;99.90;;;;;;5091760;28;19974;-72
2023/08/15 04:09:16;;;;;;;;;;;21.30;99.90;;;;;;5091626;28;19962;-72
2023/08/15 04:11:41;;;;;;;;;;;21.30;99.90;;;;;;5092023;28;19915;-72
2023/08/15 04:14:07;;;;;;;;;;;21.20;99.90;;;;;;5091995;28;19921;-72
2023/08/15 04:16:32;;;;;;;;;;;21.20;99.90;;;;;;5091731;28;19908;-72
2023/08/15 04:18:58;;;;;;;;;;;21.20;99.90;;;;;;5092217;28;19904;-72
2023/08/15 04:21:23;;;;;;;;;;;21.20;99.90;;;;;;5091727;28;20322;-72
2023/08/15 04:23:49;;;;;;;;;;;21.20;99.90;;;;;;5091838;28;19947;-72
2023/08/15 04:26:15;;;;;;;;;;;21.20;99.90;;;;;;5091371;28;19923;-74
2023/08/15 04:28:41;;;;;;;;;;;21.20;99.90;;;;;;5091866;28;20330;-73
2023/08/15 04:31:06;;;;;;;;;;;21.20;99.90;;;;;;5092707;28;19908;-73
2023/08/15 04:33:32;;;;;;;;;;;21.20;99.90;;;;;;5091809;28;20259;-73
2023/08/15 04:35:57;;;;;;;;;;;21.10;99.90;;;;;;5092073;28;19908;-74
2023/08/15 04:38:23;;;;;;;;;;;21.20;99.90;;;;;;5091830;28;19912;-73
2023/08/15 04:40:48;;;;;;;;;;;21.20;99.90;;;;;;5091569;28;19999;-72
2023/08/15 04:43:14;;;;;;;;;;;21.20;99.90;;;;;;5092010;28;20008;-72
2023/08/15 04:45:40;;;;;;;;;;;21.20;99.90;;;;;;5091764;28;19908;-73
2023/08/15 04:48:08;;;;;;;;;;;21.20;99.90;;;;;;5091794;28;20239;-72
2023/08/15 04:50:33;;;;;;;;;;;21.20;99.90;;;;;;5091619;28;19912;-72
2023/08/15 04:52:59;;;;;;;;;;;21.20;99.90;;;;;;5091464;28;19912;-72
2023/08/15 04:55:24;;;;;;;;;;;21.20;99.90;;;;;;5091247;28;19919;-71
2023/08/15 04:57:50;;;;;;;;;;;21.20;99.90;;;;;;5091779;28;20315;-74
2023/08/15 05:00:19;;;;;;;;;;;21.20;99.90;;;;;;5091296;28;19915;-74
2023/08/15 05:02:45;;;;;;;;;;;21.20;99.90;;;;;;5091367;28;19912;-73
2023/08/15 05:05:10;;;;;;;;;;;21.20;99.90;;;;;;5091457;28;20352;-74
2023/08/15 05:07:36;;;;;;;;;;;21.30;99.90;;;;;;5091356;28;19994;-74
2023/08/15 05:10:02;;;;;;;;;;;21.30;99.90;;;;;;5090541;28;19904;-73
2023/08/15 05:12:27;;;;;;;;;;;21.40;99.90;;;;;;5091020;28;19919;-73
2023/08/15 05:14:53;;;;;;;;;;;21.40;99.90;;;;;;5090990;28;19908;-72
2023/08/15 05:17:19;;;;;;;;;;;21.40;99.90;;;;;;5090881;28;19916;-73
2023/08/15 05:19:44;;;;;;;;;;;21.50;99.90;;;;;;5089913;28;19916;-73
2023/08/15 05:22:10;;;;;;;;;;;21.60;99.90;;;;;;5091407;28;19904;-73
2023/08/15 05:24:35;;;;;;;;;;;21.60;99.90;;;;;;5091196;28;20004;-73
2023/08/15 05:27:01;;;;;;;;;;;21.70;99.90;;;;;;5090925;28;20053;-72
2023/08/15 05:29:26;;;;;;;;;;;21.70;99.90;;;;;;5090003;28;19923;-73
2023/08/15 05:31:52;;;;;;;;;;;21.80;99.90;;;;;;5090671;28;20002;-72
2023/08/15 05:34:18;;;;;;;;;;;21.90;99.90;;;;;;5090960;28;19916;-73
2023/08/15 05:36:43;;;;;;;;;;;21.90;99.90;;;;;;5090802;28;19912;-72
2023/08/15 05:39:09;;;;;;;;;;;21.90;99.90;;;;;;5094987;28;19912;-72
2023/08/15 05:41:34;;;;;;;;;;;22.00;99.90;;;;;;5094986;28;20001;-72
2023/08/15 05:44:00;;;;;;;;;;;22.00;99.90;;;;;;5093775;28;19912;-73
2023/08/15 05:46:25;;;;;;;;;;;22.10;99.90;;;;;;5094751;28;19908;-73
2023/08/15 05:48:51;;;;;;;;;;;22.10;99.90;;;;;;5095335;28;20353;-73
2023/08/15 05:51:16;;;;;;;;;;;22.10;99.90;;;;;;5095018;28;19977;-72
2023/08/15 05:53:42;;;;;;;;;;;22.20;99.90;;;;;;5093892;28;19931;-72
2023/08/15 05:56:08;;;;;;;;;;;22.10;99.90;;;;;;5094823;28;20356;-72
2023/08/15 05:58:33;;;;;;;;;;;22.20;99.90;;;;;;5094409;28;19963;-72
2023/08/15 06:00:59;;;;;;;;;;;22.20;99.90;;;;;;5095146;28;20022;-72
2023/08/15 06:03:25;;;;;;;;;;;22.20;99.90;;;;;;5093464;28;20307;-72
2023/08/15 06:05:50;;;;;;;;;;;22.20;99.90;;;;;;5094390;28;19916;-73
2023/08/15 06:08:16;;;;;;;;;;;22.20;99.90;;;;;;5094307;28;19922;-72
2023/08/15 06:10:41;;;;;;;;;;;22.20;99.90;;;;;;5094229;28;19904;-75
2023/08/15 06:13:07;;;;;;;;;;;22.20;99.90;;;;;;5094629;28;19904;-72
2023/08/15 06:15:33;;;;;;;;;;;22.20;99.90;;;;;;5093843;28;19984;-76
2023/08/15 06:17:58;;;;;;;;;;;22.20;99.90;;;;;;5093917;28;20265;-71
2023/08/15 06:20:24;;;;;;;;;;;22.20;99.90;;;;;;5094065;28;20341;-69
2023/08/15 06:22:49;;;;;;;;;;;22.20;99.90;;;;;;5094337;28;20334;-68
2023/08/15 06:25:15;;;;;;;;;;;22.20;99.90;;;;;;5094102;28;19931;-71
2023/08/15 06:27:40;;;;;;;;;;;22.20;99.90;;;;;;5094502;28;19961;-70
2023/08/15 06:30:06;;;;;;;;;;;22.30;99.90;;;;;;5092386;28;19930;-71
2023/08/15 06:32:32;;;;;;;;;;;22.20;99.90;;;;;;5093465;28;19931;-70
2023/08/15 06:34:59;;;;;;;;;;;22.20;99.90;;;;;;5092143;28;19959;-71
2023/08/15 06:37:25;;;;;;;;;;;22.20;99.90;;;;;;5093377;28;20024;-71
2023/08/15 06:39:50;;;;;;;;;;;22.10;99.90;;;;;;5093647;28;19961;-71
2023/08/15 06:42:16;;;;;;;;;;;22.10;99.90;;;;;;5093580;28;20005;-73
2023/08/15 06:44:43;;;;;;;;;;;22.10;99.90;;;;;;5093382;28;19908;-72
2023/08/15 06:47:08;;;;;;;;;;;22.10;99.90;;;;;;5092505;28;20264;-72
2023/08/15 06:49:34;;;;;;;;;;;22.10;99.90;;;;;;5092655;28;20368;-72
2023/08/15 06:52:00;;;;;;;;;;;22.10;99.90;;;;;;5093083;28;20050;-74
2023/08/15 06:54:25;;;;;;;;;;;22.10;99.90;;;;;;5093992;28;20330;-72
2023/08/15 06:56:51;;;;;;;;;;;22.10;99.90;;;;;;5093560;28;19966;-72
2023/08/15 06:59:17;;;;;;;;;;;22.10;99.90;;;;;;5092566;28;20322;-74
2023/08/15 07:01:43;;;;;;;;;;;22.10;99.90;;;;;;5093655;28;19914;-72
2023/08/15 07:04:09;;;;;;;;;;;22.10;99.90;;;;;;5093071;28;19908;-73
2023/08/15 07:06:34;;;;;;;;;;;22.10;99.90;;;;;;5093660;28;19912;-71
2023/08/15 07:09:00;;;;;;;;;;;22.20;99.90;;;;;;5092637;28;19912;-73
2023/08/15 07:11:25;;;;;;;;;;;22.10;99.90;;;;;;5094352;28;19908;-74
2023/08/15 07:13:51;;;;;;;;;;;22.10;99.90;;;;;;5094041;28;19941;-71
2023/08/15 07:16:17;;;;;;;;;;;22.10;99.90;;;;;;5093409;28;19907;-70
2023/08/15 07:18:42;;;;;;;;;;;22.00;99.90;;;;;;5093415;28;19920;-71
2023/08/15 07:21:08;;;;;;;;;;;22.00;99.90;;;;;;5093388;28;20242;-71
2023/08/15 07:23:34;;;;;;;;;;;22.00;99.90;;;;;;5094210;28;20014;-69
2023/08/15 07:25:59;;;;;;;;;;;22.00;99.90;;;;;;5098430;28;19955;-69
2023/08/15 07:28:25;;;;;;;;;;;22.10;99.90;;;;;;5095063;28;19904;-70
2023/08/15 07:30:50;;;;;;;;;;;22.10;99.90;;;;;;5095299;28;19904;-70
2023/08/15 07:33:16;;;;;;;;;;;22.10;99.90;;;;;;5094218;28;19912;-71
2023/08/15 07:35:42;;;;;;;;;;;22.10;99.90;;;;;;5093795;28;20257;-69
2023/08/15 07:38:08;;;;;;;;;;;22.10;99.90;;;;;;5096304;28;19922;-73
2023/08/15 07:40:33;;;;;;;;;;;22.10;99.90;;;;;;5070386;28;20418;-71
2023/08/15 07:42:59;;;;;;;;;;;22.10;99.90;;;;;;5056402;28;19904;-72
2023/08/15 07:45:24;;;;;;;;;;;22.10;99.90;;;;;;5054283;28;19931;-71
2023/08/15 07:47:54;;;;;;;;;;;22.10;99.90;;;;;;5051422;28;20339;-72
2023/08/15 07:50:26;;;;;;;;;;;22.20;99.90;;;;;;5052636;28;19961;-72
2023/08/15 07:52:52;;;;;;;;;;;22.30;99.90;;;;;;5052892;28;19970;-75
2023/08/15 07:55:18;;;;;;;;;;;22.20;99.90;;;;;;5053326;28;19911;-73
2023/08/15 07:57:44;;;;;;;;;;;22.20;99.90;;;;;;5052388;28;20011;-74
2023/08/15 08:00:11;;;;;;;;;;;22.20;99.90;;;;;;5050660;28;19991;-71
2023/08/15 08:02:36;;;;;;;;;;;22.20;99.90;;;;;;5052059;28;19916;-74
2023/08/15 08:05:06;;;;;;;;;;;22.20;99.90;;;;;;5051930;28;19909;-73
2023/08/15 08:07:32;;;;;;;;;;;22.20;99.90;;;;;;5051667;28;20335;-72
2023/08/15 08:09:59;;;;;;;;;;;22.30;99.90;;;;;;5051961;28;19912;-71
2023/08/15 08:12:25;;;;;;;;;;;22.40;99.90;;;;;;5051410;28;19912;-72
2023/08/15 08:14:50;;;;;;;;;;;22.40;99.90;;;;;;5051257;28;19966;-75
2023/08/15 08:17:16;;;;;;;;;;;22.40;99.90;;;;;;5051753;28;19981;-73
2023/08/15 08:19:41;;;;;;;;;;;22.50;99.90;;;;;;5051208;28;20327;-74
2023/08/15 08:22:07;;;;;;;;;;;22.70;99.90;;;;;;5050642;28;19912;-71
2023/08/15 08:24:33;;;;;;;;;;;22.90;99.90;;;;;;5051259;28;19973;-74
2023/08/15 08:26:58;;;;;;;;;;;23.00;99.90;;;;;;5050050;28;20294;-73
2023/08/15 08:29:24;;;;;;;;;;;23.10;99.90;;;;;;5050056;28;20267;-72
2023/08/15 08:31:49;;;;;;;;;;;23.20;99.90;;;;;;5050974;28;19913;-72
2023/08/15 08:34:15;;;;;;;;;;;23.40;99.90;;;;;;5051305;28;20353;-72
2023/08/15 08:36:41;;;;;;;;;;;23.40;99.90;;;;;;5049867;28;19919;-71
2023/08/15 08:39:09;;;;;;;;;;;23.50;99.90;;;;;;5051321;28;20024;-73
2023/08/15 08:41:38;;;;;;;;;;;24.00;99.90;;;;;;5051091;28;19913;-72
2023/08/15 08:44:04;;;;;;;;;;;25.00;99.90;;;;;;5050990;28;19923;-74
2023/08/15 08:46:30;;;;;;;;;;;26.00;99.90;;;;;;5051214;28;20007;-72
2023/08/15 08:48:56;;;;;;;;;;;26.70;99.90;;;;;;5051327;28;20336;-75
2023/08/15 08:51:22;;;;;;;;;;;27.40;99.90;;;;;;5051157;28;19909;-76
2023/08/15 08:53:48;;;;;;;;;;;28.40;99.90;;;;;;5051104;28;20289;-76
2023/08/15 08:56:14;;;;;;;;;;;29.80;99.90;;;;;;5051078;28;19962;-78
2023/08/15 08:58:41;;;;;;;;;;;30.90;99.80;;;;;;5049673;28;19965;-76
2023/08/15 09:01:07;;;;;;;;;;;31.30;96.90;;;;;;5050439;28;19916;-79
2023/08/15 09:03:33;;;;;;;;;;;32.00;95.20;;;;;;5050920;28;19919;-77
2023/08/15 09:05:58;;;;;;;;;;;32.10;95.90;;;;;;5049661;28;19987;-78
2023/08/15 09:08:24;;;;;;;;;;;32.60;94.30;;;;;;5049469;28;20319;-71
2023/08/15 09:10:50;;;;;;;;;;;33.50;93.60;;;;;;5050890;28;19921;-70
2023/08/15 09:13:20;;;;;;;;;;;33.10;91.60;;;;;;5066604;28;20243;-70
2023/08/15 09:15:56;;;;;;;;;;;33.80;91.70;;;;;;5050555;28;20309;-72
2023/08/15 09:18:24;;;;;;;;;;;34.20;90.90;;;;;;5050532;28;19955;-77
2023/08/15 09:20:50;;;;;;;;;;;34.30;89.90;;;;;;5049292;28;19909;-75
2023/08/15 09:23:16;;;;;;;;;;;34.90;87.20;;;;;;5050484;28;19908;-79
2023/08/15 09:25:42;;;;;;;;;;;35.70;86.20;;;;;;5049513;28;19909;-78
2023/08/15 09:28:07;;;;;;;;;;;35.70;83.10;;;;;;5050184;28;19915;-76
2023/08/15 09:30:33;;;;;;;;;;;34.90;81.70;;;;;;5049326;28;19913;-77
2023/08/15 09:33:00;;;;;;;;;;;35.20;84.00;;;;;;5050322;28;19913;-74
2023/08/15 09:35:26;;;;;;;;;;;35.80;84.40;;;;;;5050217;28;19921;-73
2023/08/15 09:37:52;;;;;;;;;;;36.70;81.60;;;;;;5050125;28;19916;-74
2023/08/15 09:40:19;;;;;;;;;;;35.60;78.90;;;;;;5050646;28;19908;-74
2023/08/15 09:42:45;;;;;;;;;;;34.40;82.10;;;;;;5050580;28;19924;-77
2023/08/15 09:45:13;;;;;;;;;;;34.30;82.80;;;;;;5050742;28;19908;-76
2023/08/15 09:47:39;;;;;;;;;;;34.60;81.60;;;;;;5050453;28;19923;-76
2023/08/15 09:50:06;;;;;;;;;;;33.50;83.70;;;;;;5050241;28;19908;-78
2023/08/15 09:52:32;;;;;;;;;;;33.90;83.00;;;;;;5049034;28;19915;-79
2023/08/15 09:54:58;;;;;;;;;;;33.70;83.40;;;;;;5049864;28;19901;-79
2023/08/15 09:57:23;;;;;;;;;;;34.10;84.20;;;;;;5050106;28;19913;-74
2023/08/15 09:59:49;;;;;;;;;;;34.60;83.20;;;;;;5050132;28;19912;-74
2023/08/15 10:02:20;;;;;;;;;;;34.50;79.80;;;;;;5050690;28;19912;-76
2023/08/15 10:04:46;;;;;;;;;;;33.50;80.70;;;;;;5051245;28;19913;-75
2023/08/15 10:07:12;;;;;;;;;;;33.40;82.00;;;;;;5050750;28;20361;-72
2023/08/15 10:09:38;;;;;;;;;;;34.00;81.40;;;;;;5050248;28;19948;-74
2023/08/15 10:12:04;;;;;;;;;;;33.80;82.20;;;;;;5065608;28;20360;-74
2023/08/15 10:14:30;;;;;;;;;;;34.40;80.60;;;;;;5049968;28;19913;-74
2023/08/15 10:16:56;;;;;;;;;;;33.90;81.50;;;;;;5050394;28;20275;-76
2023/08/15 10:19:28;;;;;;;;;;;33.30;82.70;;;;;;5050469;28;19905;-77
2023/08/15 10:21:54;;;;;;;;;;;33.50;81.30;;;;;;5050650;28;19944;-76
2023/08/15 10:24:21;;;;;;;;;;;32.80;82.10;;;;;;5052423;28;20381;-73
2023/08/15 10:26:46;;;;;;;;;;;33.00;82.40;;;;;;5053526;28;19908;-76
2023/08/15 10:29:12;;;;;;;;;;;32.70;82.60;;;;;;5053733;28;19966;-78
2023/08/15 10:31:38;;;;;;;;;;;33.00;81.10;;;;;;5053461;28;19904;-70
2023/08/15 10:34:07;;;;;;;;;;;32.30;83.10;;;;;;5053934;28;19931;-73
2023/08/15 10:36:32;;;;;;;;;;;31.60;85.10;;;;;;5053250;28;19973;-72
2023/08/15 10:39:02;;;;;;;;;;;31.40;85.70;;;;;;5053248;28;19908;-73
2023/08/15 10:41:30;;;;;;;;;;;32.00;84.70;;;;;;5053627;28;19908;-71
2023/08/15 10:43:58;;;;;;;;;;;31.90;85.10;;;;;;5068898;28;19931;-72
2023/08/15 10:46:28;;;;;;;;;;;32.00;84.80;;;;;;5053407;28;19905;-71
2023/08/15 10:48:55;;;;;;;;;;;31.40;86.50;;;;;;5053347;28;19909;-71
2023/08/15 10:51:22;;;;;;;;;;;31.50;87.10;;;;;;5053228;28;19909;-72
2023/08/15 10:53:49;;;;;;;;;;;31.40;87.00;;;;;;5068622;28;19921;-73
2023/08/15 10:56:18;;;;;;;;;;;31.40;87.20;;;;;;5053135;28;19924;-71
2023/08/15 10:58:45;;;;;;;;;;;31.30;87.30;;;;;;5051773;28;19909;-76
2023/08/15 11:01:11;;;;;;;;;;;31.40;87.10;;;;;;5053708;28;19904;-73
2023/08/15 11:03:37;;;;;;;;;;;31.50;86.60;;;;;;5052834;28;19913;-74
2023/08/15 11:06:12;;;;;;;;;;;31.20;86.90;;;;;;5052781;28;20027;-76
2023/08/15 11:08:44;;;;;;;;;;;31.00;87.00;;;;;;5053009;28;19912;-71
2023/08/15 11:11:10;;;;;;;;;;;30.90;88.00;;;;;;5053002;28;19908;-75
2023/08/15 11:13:40;;;;;;;;;;;30.80;88.60;;;;;;5052919;28;19911;-83
2023/08/15 11:16:06;;;;;;;;;;;30.80;88.30;;;;;;5053490;28;20018;-70
2023/08/15 11:18:32;;;;;;;;;;;30.80;89.10;;;;;;5052751;28;20250;-71
2023/08/15 11:20:58;;;;;;;;;;;31.00;88.70;;;;;;5052792;28;19913;-76
2023/08/15 11:23:27;;;;;;;;;;;30.70;88.60;;;;;;5052605;28;20019;-79
2023/08/15 11:25:52;;;;;;;;;;;30.40;89.90;;;;;;5052564;28;19909;-72
2023/08/15 11:28:18;;;;;;;;;;;30.00;90.20;;;;;;5053074;28;20384;-72
2023/08/15 11:30:43;;;;;;;;;;;30.10;90.10;;;;;;5051382;28;19915;-70
2023/08/15 11:33:09;;;;;;;;;;;29.80;90.40;;;;;;5052313;28;20286;-75
2023/08/15 11:35:35;;;;;;;;;;;29.70;90.50;;;;;;5051336;28;19917;-71
2023/08/15 11:38:00;;;;;;;;;;;29.50;90.80;;;;;;5052209;28;20357;-73
2023/08/15 11:40:26;;;;;;;;;;;29.50;90.80;;;;;;5052633;28;19958;-73
2023/08/15 11:42:52;;;;;;;;;;;29.20;91.20;;;;;;5052659;28;19904;-72
2023/08/15 11:45:19;;;;;;;;;;;29.20;91.50;;;;;;5052386;28;19919;-73
2023/08/15 11:47:54;;;;;;;;;;;28.90;91.90;;;;;;5052065;28;19944;-71
2023/08/15 11:50:20;;;;;;;;;;;28.90;91.90;;;;;;5050873;28;19913;-74
2023/08/15 11:52:46;;;;;;;;;;;28.80;92.10;;;;;;5052278;28;20317;-72
2023/08/15 11:55:11;;;;;;;;;;;28.90;92.10;;;;;;5051376;28;19923;-72
2023/08/15 11:57:37;;;;;;;;;;;28.90;92.00;;;;;;5051907;28;19981;-72
2023/08/15 12:00:03;;;;;;;;;;;28.80;92.30;;;;;;5050871;28;19908;-70
2023/08/15 12:02:29;;;;;;;;;;;28.60;92.50;;;;;;5052093;28;19909;-71
2023/08/15 12:04:55;;;;;;;;;;;28.40;92.80;;;;;;5051832;28;20000;-71
2023/08/15 12:07:20;;;;;;;;;;;28.40;93.00;;;;;;5051061;28;19904;-71
2023/08/15 12:09:46;;;;;;;;;;;28.30;93.10;;;;;;5051617;28;19999;-70
2023/08/15 12:12:23;;;;;;;;;;;28.00;93.50;;;;;;5051731;28;19908;-74
2023/08/15 12:14:48;;;;;;;;;;;28.10;93.40;;;;;;5050712;28;19909;-74
2023/08/15 12:17:14;;;;;;;;;;;27.90;93.70;;;;;;5051440;28;20411;-74
2023/08/15 12:19:39;;;;;;;;;;;27.80;93.90;;;;;;5050428;28;19931;-75
2023/08/15 12:22:05;;;;;;;;;;;27.80;94.20;;;;;;5051756;28;19904;-77
2023/08/15 12:24:31;;;;;;;;;;;27.90;94.00;;;;;;5051879;28;19948;-76
2023/08/15 12:26:56;;;;;;;;;;;27.80;94.40;;;;;;5051506;28;19974;-70
2023/08/15 12:29:22;;;;;;;;;;;27.70;95.00;;;;;;5051252;28;19909;-74
2023/08/15 12:31:47;;;;;;;;;;;27.70;94.80;;;;;;5051226;28;20047;-71
2023/08/15 12:34:13;;;;;;;;;;;27.60;95.10;;;;;;5051897;28;20021;-71
2023/08/15 12:36:39;;;;;;;;;;;27.50;95.20;;;;;;5051382;28;19909;-72
2023/08/15 12:39:06;;;;;;;;;;;27.50;95.40;;;;;;5051115;28;19995;-72
2023/08/15 12:41:32;;;;;;;;;;;27.50;95.50;;;;;;5051062;28;19909;-71
2023/08/15 12:43:58;;;;;;;;;;;27.60;95.40;;;;;;5051180;28;20306;-71
2023/08/15 12:46:24;;;;;;;;;;;27.50;95.50;;;;;;5051785;28;19905;-73
2023/08/15 12:48:50;;;;;;;;;;;27.60;95.50;;;;;;5051097;28;20408;-73
2023/08/15 12:51:15;;;;;;;;;;;27.60;95.50;;;;;;5051210;28;19917;-71
2023/08/15 12:53:41;;;;;;;;;;;27.60;95.50;;;;;;5051119;28;19909;-73
2023/08/15 12:56:06;;;;;;;;;;;27.60;95.30;;;;;;5050752;28;19923;-73
2023/08/15 12:58:32;;;;;;;;;;;27.50;95.50;;;;;;5050710;28;20315;-73
2023/08/15 13:00:57;;;;;;;;;;;27.40;95.80;;;;;;5051273;28;19908;-72
2023/08/15 13:03:23;;;;;;;;;;;27.40;95.90;;;;;;5049610;28;20235;-73
2023/08/15 13:05:49;;;;;;;;;;;27.50;95.90;;;;;;5051085;28;19912;-72
2023/08/15 13:08:16;;;;;;;;;;;27.50;95.80;;;;;;5050972;28;20362;-73
2023/08/15 13:10:42;;;;;;;;;;;27.40;95.70;;;;;;5050873;28;20333;-75
2023/08/15 13:13:08;;;;;;;;;;;27.30;96.00;;;;;;5051435;28;19948;-74
2023/08/15 13:15:34;;;;;;;;;;;27.30;95.70;;;;;;5050600;28;19913;-74
2023/08/15 13:18:00;;;;;;;;;;;27.20;96.00;;;;;;5050239;28;19921;-75
2023/08/15 13:20:25;;;;;;;;;;;27.00;96.30;;;;;;5050411;28;19916;-75
2023/08/15 13:22:51;;;;;;;;;;;27.10;96.40;;;;;;5050648;28;19909;-78
2023/08/15 13:25:16;;;;;;;;;;;27.10;96.30;;;;;;5050034;28;19931;-74
2023/08/15 13:27:42;;;;;;;;;;;27.20;96.50;;;;;;5051077;28;19909;-74
2023/08/15 13:30:08;;;;;;;;;;;27.10;96.60;;;;;;5050755;28;19992;-73
2023/08/15 13:32:33;;;;;;;;;;;27.10;96.70;;;;;;5050490;28;20339;-74
2023/08/15 13:34:59;;;;;;;;;;;27.00;96.80;;;;;;5050357;28;19960;-75
2023/08/15 13:37:24;;;;;;;;;;;27.10;96.90;;;;;;5051413;28;20296;-76
2023/08/15 13:39:50;;;;;;;;;;;27.20;96.70;;;;;;5050670;28;20488;-75
2023/08/15 13:42:15;;;;;;;;;;;27.30;96.70;;;;;;5050352;28;19920;-75
2023/08/15 13:44:41;;;;;;;;;;;27.40;96.40;;;;;;5050243;28;20310;-75
2023/08/15 13:47:06;;;;;;;;;;;27.30;96.40;;;;;;5050299;28;19912;-75
2023/08/15 13:49:32;;;;;;;;;;;27.30;96.60;;;;;;5050041;28;19904;-75
2023/08/15 13:51:58;;;;;;;;;;;27.30;96.70;;;;;;5050878;28;19948;-74
2023/08/15 13:54:24;;;;;;;;;;;27.30;96.30;;;;;;5050738;28;19979;-75
2023/08/15 13:56:49;;;;;;;;;;;27.30;95.90;;;;;;5050652;28;19912;-74
2023/08/15 13:59:15;;;;;;;;;;;27.30;95.50;;;;;;5051844;28;20297;-74
2023/08/15 14:01:40;;;;;;;;;;;27.30;95.50;;;;;;5054176;28;19905;-74
2023/08/15 14:04:06;;;;;;;;;;;27.30;95.70;;;;;;5054697;28;19908;-75
2023/08/15 14:06:31;;;;;;;;;;;27.30;95.50;;;;;;5053897;28;19919;-75
2023/08/15 14:08:57;;;;;;;;;;;27.30;95.70;;;;;;5052728;28;20331;-75